sensor_id;sensor_type;location;lat;lon;timestamp;P1;durP1;ratioP1;P2;durP2;ratioP2
59659;SDS011;45534;52.690;6.268;2023-08-24T00:00:38;5.30;;;3.20;;
59659;SDS011;45534;52.690;6.268;2023-08-24T00:03:04;5.47;;;2.92;;
59659;SDS011;45534;52.690;6.268;2023-08-24T00:05:33;3.72;;;2.90;;
59659;SDS011;45534;52.690;6.268;2023-08-24T00:08:06;5.75;;;4.30;;
59659;SDS011;45534;52.690;6.268;2023-08-24T00:10:33;5.32;;;3.45;;
59659;SDS011;45534;52.690;6.268;2023-08-24T00:12:59;3.67;;;3.35;;
59659;SDS011;45534;52.690;6.268;2023-08-24T00:15:25;4.35;;;2.80;;
59659;SDS011;45534;52.690;6.268;2023-08-24T00:17:51;3.83;;;3.40;;
59659;SDS011;45534;52.690;6.268;2023-08-24T00:20:17;5.63;;;3.33;;
59659;SDS011;45534;52.690;6.268;2023-08-24T00:22:43;5.60;;;3.08;;
59659;SDS011;45534;52.690;6.268;2023-08-24T00:25:09;5.30;;;3.30;;
59659;SDS011;45534;52.690;6.268;2023-08-24T00:27:35;5.22;;;3.60;;
59659;SDS011;45534;52.690;6.268;2023-08-24T00:30:05;4.57;;;2.70;;
59659;SDS011;45534;52.690;6.268;2023-08-24T00:32:32;5.03;;;3.33;;
59659;SDS011;45534;52.690;6.268;2023-08-24T00:35:00;4.70;;;3.38;;
59659;SDS011;45534;52.690;6.268;2023-08-24T00:37:30;5.15;;;3.20;;
59659;SDS011;45534;52.690;6.268;2023-08-24T00:39:56;3.92;;;3.20;;
59659;SDS011;45534;52.690;6.268;2023-08-24T00:42:24;16.58;;;4.40;;
59659;SDS011;45534;52.690;6.268;2023-08-24T00:44:51;4.43;;;3.53;;
59659;SDS011;45534;52.690;6.268;2023-08-24T00:47:17;3.17;;;2.85;;
59659;SDS011;45534;52.690;6.268;2023-08-24T00:49:43;5.00;;;3.85;;
59659;SDS011;45534;52.690;6.268;2023-08-24T00:52:09;4.95;;;3.15;;
59659;SDS011;45534;52.690;6.268;2023-08-24T00:54:35;13.15;;;3.47;;
59659;SDS011;45534;52.690;6.268;2023-08-24T00:57:02;5.05;;;3.53;;
59659;SDS011;45534;52.690;6.268;2023-08-24T00:59:28;4.93;;;3.75;;
59659;SDS011;45534;52.690;6.268;2023-08-24T01:01:53;3.25;;;2.95;;
59659;SDS011;45534;52.690;6.268;2023-08-24T01:04:20;4.30;;;3.30;;
59659;SDS011;45534;52.690;6.268;2023-08-24T01:06:47;4.40;;;3.58;;
59659;SDS011;45534;52.690;6.268;2023-08-24T01:09:13;3.35;;;2.88;;
59659;SDS011;45534;52.690;6.268;2023-08-24T01:11:43;5.00;;;3.00;;
59659;SDS011;45534;52.690;6.268;2023-08-24T01:17:43;5.93;;;3.67;;
59659;SDS011;45534;52.690;6.268;2023-08-24T01:20:10;5.70;;;2.95;;
59659;SDS011;45534;52.690;6.268;2023-08-24T01:22:54;5.68;;;3.42;;
59659;SDS011;45534;52.690;6.268;2023-08-24T01:25:32;5.25;;;3.63;;
59659;SDS011;45534;52.690;6.268;2023-08-24T01:28:05;4.00;;;3.60;;
59659;SDS011;45534;52.690;6.268;2023-08-24T01:30:33;2.63;;;2.40;;
59659;SDS011;45534;52.690;6.268;2023-08-24T01:33:02;3.92;;;3.35;;
59659;SDS011;45534;52.690;6.268;2023-08-24T01:35:29;3.05;;;2.60;;
59659;SDS011;45534;52.690;6.268;2023-08-24T01:37:55;4.45;;;3.10;;
59659;SDS011;45534;52.690;6.268;2023-08-24T01:43:20;13.20;;;8.10;;
59659;SDS011;45534;52.690;6.268;2023-08-24T01:45:49;4.50;;;3.53;;
59659;SDS011;45534;52.690;6.268;2023-08-24T01:48:18;5.32;;;3.70;;
59659;SDS011;45534;52.690;6.268;2023-08-24T01:50:44;8.88;;;3.75;;
59659;SDS011;45534;52.690;6.268;2023-08-24T01:53:11;8.27;;;4.00;;
59659;SDS011;45534;52.690;6.268;2023-08-24T01:55:37;11.13;;;3.95;;
59659;SDS011;45534;52.690;6.268;2023-08-24T01:58:03;6.38;;;3.60;;
59659;SDS011;45534;52.690;6.268;2023-08-24T02:00:29;6.68;;;4.00;;
59659;SDS011;45534;52.690;6.268;2023-08-24T02:02:54;8.45;;;4.38;;
59659;SDS011;45534;52.690;6.268;2023-08-24T02:05:20;17.20;;;7.85;;
59659;SDS011;45534;52.690;6.268;2023-08-24T02:07:46;4.97;;;3.03;;
59659;SDS011;45534;52.690;6.268;2023-08-24T02:10:12;5.97;;;4.50;;
59659;SDS011;45534;52.690;6.268;2023-08-24T02:12:37;4.28;;;3.58;;
59659;SDS011;45534;52.690;6.268;2023-08-24T02:15:03;9.00;;;3.40;;
59659;SDS011;45534;52.690;6.268;2023-08-24T02:17:29;5.95;;;4.47;;
59659;SDS011;45534;52.690;6.268;2023-08-24T02:19:55;6.13;;;4.60;;
59659;SDS011;45534;52.690;6.268;2023-08-24T02:22:21;5.15;;;3.08;;
59659;SDS011;45534;52.690;6.268;2023-08-24T02:24:46;8.40;;;3.65;;
59659;SDS011;45534;52.690;6.268;2023-08-24T02:27:12;8.90;;;4.03;;
59659;SDS011;45534;52.690;6.268;2023-08-24T02:29:38;4.93;;;4.13;;
59659;SDS011;45534;52.690;6.268;2023-08-24T02:32:04;9.80;;;6.13;;
59659;SDS011;45534;52.690;6.268;2023-08-24T02:34:30;8.05;;;4.63;;
59659;SDS011;45534;52.690;6.268;2023-08-24T02:36:56;4.82;;;4.05;;
59659;SDS011;45534;52.690;6.268;2023-08-24T02:39:22;10.98;;;4.78;;
59659;SDS011;45534;52.690;6.268;2023-08-24T02:41:48;9.57;;;5.35;;
59659;SDS011;45534;52.690;6.268;2023-08-24T02:44:14;10.45;;;4.63;;
59659;SDS011;45534;52.690;6.268;2023-08-24T02:46:40;4.43;;;3.38;;
59659;SDS011;45534;52.690;6.268;2023-08-24T02:49:09;11.82;;;5.30;;
59659;SDS011;45534;52.690;6.268;2023-08-24T02:51:34;8.98;;;5.38;;
59659;SDS011;45534;52.690;6.268;2023-08-24T02:54:00;7.15;;;4.63;;
59659;SDS011;45534;52.690;6.268;2023-08-24T02:56:26;11.48;;;6.13;;
59659;SDS011;45534;52.690;6.268;2023-08-24T02:58:52;5.85;;;4.50;;
59659;SDS011;45534;52.690;6.268;2023-08-24T03:01:18;7.00;;;4.88;;
59659;SDS011;45534;52.690;6.268;2023-08-24T03:03:43;6.47;;;5.68;;
59659;SDS011;45534;52.690;6.268;2023-08-24T03:06:09;8.32;;;5.57;;
59659;SDS011;45534;52.690;6.268;2023-08-24T03:08:35;13.60;;;5.07;;
59659;SDS011;45534;52.690;6.268;2023-08-24T03:11:01;8.63;;;4.18;;
59659;SDS011;45534;52.690;6.268;2023-08-24T03:13:28;6.80;;;5.18;;
59659;SDS011;45534;52.690;6.268;2023-08-24T03:15:55;7.90;;;4.97;;
59659;SDS011;45534;52.690;6.268;2023-08-24T03:18:21;4.20;;;3.47;;
59659;SDS011;45534;52.690;6.268;2023-08-24T03:20:47;6.00;;;3.97;;
59659;SDS011;45534;52.690;6.268;2023-08-24T03:23:13;7.60;;;4.07;;
59659;SDS011;45534;52.690;6.268;2023-08-24T03:25:40;9.35;;;4.10;;
59659;SDS011;45534;52.690;6.268;2023-08-24T03:28:07;8.55;;;4.38;;
59659;SDS011;45534;52.690;6.268;2023-08-24T03:30:34;10.50;;;4.65;;
59659;SDS011;45534;52.690;6.268;2023-08-24T03:33:01;5.93;;;4.18;;
59659;SDS011;45534;52.690;6.268;2023-08-24T03:35:28;7.70;;;4.82;;
59659;SDS011;45534;52.690;6.268;2023-08-24T03:37:55;7.03;;;4.53;;
59659;SDS011;45534;52.690;6.268;2023-08-24T03:40:21;7.30;;;4.10;;
59659;SDS011;45534;52.690;6.268;2023-08-24T03:42:46;6.93;;;4.10;;
59659;SDS011;45534;52.690;6.268;2023-08-24T03:45:12;12.07;;;4.72;;
59659;SDS011;45534;52.690;6.268;2023-08-24T03:47:38;8.48;;;6.05;;
59659;SDS011;45534;52.690;6.268;2023-08-24T03:50:03;10.27;;;5.40;;
59659;SDS011;45534;52.690;6.268;2023-08-24T03:52:30;6.80;;;4.28;;
59659;SDS011;45534;52.690;6.268;2023-08-24T03:54:56;6.32;;;4.45;;
59659;SDS011;45534;52.690;6.268;2023-08-24T03:57:22;8.60;;;5.53;;
59659;SDS011;45534;52.690;6.268;2023-08-24T03:59:48;6.47;;;4.28;;
59659;SDS011;45534;52.690;6.268;2023-08-24T04:02:14;9.25;;;5.15;;
59659;SDS011;45534;52.690;6.268;2023-08-24T04:04:40;6.95;;;4.95;;
59659;SDS011;45534;52.690;6.268;2023-08-24T04:07:05;3.83;;;3.58;;
59659;SDS011;45534;52.690;6.268;2023-08-24T04:09:31;7.40;;;3.63;;
59659;SDS011;45534;52.690;6.268;2023-08-24T04:11:57;9.73;;;4.40;;
59659;SDS011;45534;52.690;6.268;2023-08-24T04:14:22;6.45;;;3.50;;
59659;SDS011;45534;52.690;6.268;2023-08-24T04:16:48;6.80;;;5.10;;
59659;SDS011;45534;52.690;6.268;2023-08-24T04:19:14;6.28;;;4.47;;
59659;SDS011;45534;52.690;6.268;2023-08-24T04:21:39;4.90;;;4.07;;
59659;SDS011;45534;52.690;6.268;2023-08-24T04:24:05;10.15;;;4.70;;
59659;SDS011;45534;52.690;6.268;2023-08-24T04:26:31;5.30;;;3.95;;
59659;SDS011;45534;52.690;6.268;2023-08-24T04:28:56;10.10;;;4.28;;
59659;SDS011;45534;52.690;6.268;2023-08-24T04:31:22;7.15;;;4.97;;
59659;SDS011;45534;52.690;6.268;2023-08-24T04:33:49;11.43;;;3.92;;
59659;SDS011;45534;52.690;6.268;2023-08-24T04:36:15;5.00;;;3.78;;
59659;SDS011;45534;52.690;6.268;2023-08-24T04:38:41;9.90;;;5.13;;
59659;SDS011;45534;52.690;6.268;2023-08-24T04:41:08;5.90;;;3.80;;
59659;SDS011;45534;52.690;6.268;2023-08-24T04:43:34;6.60;;;3.58;;
59659;SDS011;45534;52.690;6.268;2023-08-24T04:46:03;10.40;;;6.65;;
59659;SDS011;45534;52.690;6.268;2023-08-24T04:48:29;13.13;;;7.05;;
59659;SDS011;45534;52.690;6.268;2023-08-24T04:50:59;7.43;;;4.30;;
59659;SDS011;45534;52.690;6.268;2023-08-24T04:53:28;8.60;;;5.20;;
59659;SDS011;45534;52.690;6.268;2023-08-24T04:55:54;5.57;;;4.38;;
59659;SDS011;45534;52.690;6.268;2023-08-24T04:58:19;11.15;;;5.35;;
59659;SDS011;45534;52.690;6.268;2023-08-24T05:00:45;5.78;;;4.38;;
59659;SDS011;45534;52.690;6.268;2023-08-24T05:03:11;10.48;;;5.15;;
59659;SDS011;45534;52.690;6.268;2023-08-24T05:05:37;5.90;;;4.15;;
59659;SDS011;45534;52.690;6.268;2023-08-24T05:08:03;8.18;;;4.10;;
59659;SDS011;45534;52.690;6.268;2023-08-24T05:10:39;8.25;;;3.97;;
59659;SDS011;45534;52.690;6.268;2023-08-24T05:13:05;6.28;;;4.47;;
59659;SDS011;45534;52.690;6.268;2023-08-24T05:15:31;7.80;;;5.68;;
59659;SDS011;45534;52.690;6.268;2023-08-24T05:17:57;8.45;;;5.85;;
59659;SDS011;45534;52.690;6.268;2023-08-24T05:20:27;10.85;;;4.72;;
59659;SDS011;45534;52.690;6.268;2023-08-24T05:22:53;9.80;;;5.55;;
59659;SDS011;45534;52.690;6.268;2023-08-24T05:25:22;9.93;;;5.93;;
59659;SDS011;45534;52.690;6.268;2023-08-24T05:27:48;7.20;;;4.90;;
59659;SDS011;45534;52.690;6.268;2023-08-24T05:30:14;9.88;;;6.03;;
59659;SDS011;45534;52.690;6.268;2023-08-24T05:32:40;10.90;;;6.55;;
59659;SDS011;45534;52.690;6.268;2023-08-24T05:35:06;7.10;;;4.68;;
59659;SDS011;45534;52.690;6.268;2023-08-24T05:37:32;8.18;;;4.93;;
59659;SDS011;45534;52.690;6.268;2023-08-24T05:40:01;11.73;;;7.40;;
59659;SDS011;45534;52.690;6.268;2023-08-24T05:42:27;11.15;;;5.68;;
59659;SDS011;45534;52.690;6.268;2023-08-24T05:44:53;7.85;;;4.72;;
59659;SDS011;45534;52.690;6.268;2023-08-24T05:47:19;10.57;;;4.82;;
59659;SDS011;45534;52.690;6.268;2023-08-24T05:49:45;7.80;;;5.40;;
59659;SDS011;45534;52.690;6.268;2023-08-24T05:52:10;11.18;;;6.97;;
59659;SDS011;45534;52.690;6.268;2023-08-24T05:54:37;7.35;;;4.93;;
59659;SDS011;45534;52.690;6.268;2023-08-24T05:57:03;12.65;;;5.82;;
59659;SDS011;45534;52.690;6.268;2023-08-24T05:59:29;8.25;;;5.68;;
59659;SDS011;45534;52.690;6.268;2023-08-24T06:01:55;9.48;;;6.30;;
59659;SDS011;45534;52.690;6.268;2023-08-24T06:04:21;16.40;;;7.75;;
59659;SDS011;45534;52.690;6.268;2023-08-24T06:06:47;10.52;;;5.68;;
59659;SDS011;45534;52.690;6.268;2023-08-24T06:09:12;17.17;;;6.30;;
59659;SDS011;45534;52.690;6.268;2023-08-24T06:11:39;13.27;;;5.57;;
59659;SDS011;45534;52.690;6.268;2023-08-24T06:14:05;8.18;;;5.38;;
59659;SDS011;45534;52.690;6.268;2023-08-24T06:16:31;10.95;;;6.22;;
59659;SDS011;45534;52.690;6.268;2023-08-24T06:18:57;10.18;;;5.90;;
59659;SDS011;45534;52.690;6.268;2023-08-24T06:21:23;9.15;;;5.55;;
59659;SDS011;45534;52.690;6.268;2023-08-24T06:23:48;7.00;;;5.22;;
59659;SDS011;45534;52.690;6.268;2023-08-24T06:26:14;7.05;;;4.10;;
59659;SDS011;45534;52.690;6.268;2023-08-24T06:28:40;15.73;;;5.40;;
59659;SDS011;45534;52.690;6.268;2023-08-24T06:31:06;6.63;;;5.63;;
59659;SDS011;45534;52.690;6.268;2023-08-24T06:33:35;16.02;;;6.97;;
59659;SDS011;45534;52.690;6.268;2023-08-24T06:36:01;13.13;;;7.93;;
59659;SDS011;45534;52.690;6.268;2023-08-24T06:38:30;8.60;;;7.05;;
59659;SDS011;45534;52.690;6.268;2023-08-24T06:40:57;9.68;;;6.40;;
59659;SDS011;45534;52.690;6.268;2023-08-24T06:43:23;7.65;;;5.38;;
59659;SDS011;45534;52.690;6.268;2023-08-24T06:45:48;8.73;;;5.88;;
59659;SDS011;45534;52.690;6.268;2023-08-24T06:48:14;11.10;;;6.38;;
59659;SDS011;45534;52.690;6.268;2023-08-24T06:50:40;11.80;;;6.55;;
59659;SDS011;45534;52.690;6.268;2023-08-24T06:53:06;8.13;;;5.95;;
59659;SDS011;45534;52.690;6.268;2023-08-24T06:55:31;10.60;;;6.13;;
59659;SDS011;45534;52.690;6.268;2023-08-24T06:57:57;11.27;;;6.95;;
59659;SDS011;45534;52.690;6.268;2023-08-24T07:00:23;12.52;;;7.65;;
59659;SDS011;45534;52.690;6.268;2023-08-24T07:02:50;9.35;;;6.05;;
59659;SDS011;45534;52.690;6.268;2023-08-24T07:05:16;11.32;;;7.15;;
59659;SDS011;45534;52.690;6.268;2023-08-24T07:07:45;12.52;;;8.85;;
59659;SDS011;45534;52.690;6.268;2023-08-24T07:10:12;11.48;;;6.18;;
59659;SDS011;45534;52.690;6.268;2023-08-24T07:12:38;12.43;;;7.43;;
59659;SDS011;45534;52.690;6.268;2023-08-24T07:15:07;12.50;;;8.20;;
59659;SDS011;45534;52.690;6.268;2023-08-24T07:17:33;11.15;;;7.72;;
59659;SDS011;45534;52.690;6.268;2023-08-24T07:19:59;10.25;;;6.00;;
59659;SDS011;45534;52.690;6.268;2023-08-24T07:22:25;18.10;;;7.38;;
59659;SDS011;45534;52.690;6.268;2023-08-24T07:24:53;11.95;;;6.75;;
59659;SDS011;45534;52.690;6.268;2023-08-24T07:27:19;9.25;;;5.53;;
59659;SDS011;45534;52.690;6.268;2023-08-24T07:29:45;13.35;;;7.38;;
59659;SDS011;45534;52.690;6.268;2023-08-24T07:32:11;10.10;;;7.00;;
59659;SDS011;45534;52.690;6.268;2023-08-24T07:34:36;11.93;;;7.82;;
59659;SDS011;45534;52.690;6.268;2023-08-24T07:37:02;23.98;;;7.57;;
59659;SDS011;45534;52.690;6.268;2023-08-24T07:39:28;9.25;;;7.30;;
59659;SDS011;45534;52.690;6.268;2023-08-24T07:41:54;13.55;;;6.78;;
59659;SDS011;45534;52.690;6.268;2023-08-24T07:44:19;12.65;;;7.88;;
59659;SDS011;45534;52.690;6.268;2023-08-24T07:46:46;15.85;;;8.15;;
59659;SDS011;45534;52.690;6.268;2023-08-24T07:49:12;9.63;;;6.90;;
59659;SDS011;45534;52.690;6.268;2023-08-24T07:51:38;16.05;;;8.82;;
59659;SDS011;45534;52.690;6.268;2023-08-24T07:54:04;11.65;;;7.53;;
59659;SDS011;45534;52.690;6.268;2023-08-24T07:56:31;25.13;;;8.10;;
59659;SDS011;45534;52.690;6.268;2023-08-24T07:58:57;11.02;;;7.18;;
59659;SDS011;45534;52.690;6.268;2023-08-24T08:01:23;14.20;;;7.40;;
59659;SDS011;45534;52.690;6.268;2023-08-24T08:03:49;12.00;;;8.05;;
59659;SDS011;45534;52.690;6.268;2023-08-24T08:06:15;11.02;;;6.00;;
59659;SDS011;45534;52.690;6.268;2023-08-24T08:08:40;11.48;;;7.57;;
59659;SDS011;45534;52.690;6.268;2023-08-24T08:11:06;17.30;;;8.65;;
59659;SDS011;45534;52.690;6.268;2023-08-24T08:13:32;15.35;;;6.35;;
59659;SDS011;45534;52.690;6.268;2023-08-24T08:16:04;15.57;;;7.10;;
59659;SDS011;45534;52.690;6.268;2023-08-24T08:18:31;14.38;;;9.63;;
59659;SDS011;45534;52.690;6.268;2023-08-24T08:20:57;11.65;;;7.45;;
59659;SDS011;45534;52.690;6.268;2023-08-24T08:23:23;12.98;;;9.50;;
59659;SDS011;45534;52.690;6.268;2023-08-24T08:25:49;11.80;;;7.30;;
59659;SDS011;45534;52.690;6.268;2023-08-24T08:28:15;12.15;;;7.68;;
59659;SDS011;45534;52.690;6.268;2023-08-24T08:30:42;11.18;;;7.93;;
59659;SDS011;45534;52.690;6.268;2023-08-24T08:33:09;15.45;;;9.52;;
59659;SDS011;45534;52.690;6.268;2023-08-24T08:35:34;12.45;;;7.18;;
59659;SDS011;45534;52.690;6.268;2023-08-24T08:38:00;17.27;;;9.00;;
59659;SDS011;45534;52.690;6.268;2023-08-24T08:40:26;8.35;;;6.80;;
59659;SDS011;45534;52.690;6.268;2023-08-24T08:42:58;15.60;;;11.68;;
59659;SDS011;45534;52.690;6.268;2023-08-24T08:45:24;11.45;;;8.13;;
59659;SDS011;45534;52.690;6.268;2023-08-24T08:47:51;35.47;;;15.93;;
59659;SDS011;45534;52.690;6.268;2023-08-24T08:50:21;19.73;;;14.88;;
59659;SDS011;45534;52.690;6.268;2023-08-24T08:52:47;11.93;;;9.20;;
59659;SDS011;45534;52.690;6.268;2023-08-24T08:55:12;11.60;;;8.25;;
59659;SDS011;45534;52.690;6.268;2023-08-24T08:57:40;11.75;;;7.53;;
59659;SDS011;45534;52.690;6.268;2023-08-24T09:00:08;10.85;;;7.22;;
59659;SDS011;45534;52.690;6.268;2023-08-24T09:02:42;17.75;;;8.75;;
59659;SDS011;45534;52.690;6.268;2023-08-24T09:05:09;15.38;;;12.13;;
59659;SDS011;45534;52.690;6.268;2023-08-24T09:07:36;18.95;;;13.48;;
59659;SDS011;45534;52.690;6.268;2023-08-24T09:10:05;12.95;;;8.60;;
59659;SDS011;45534;52.690;6.268;2023-08-24T09:12:32;9.32;;;6.20;;
59659;SDS011;45534;52.690;6.268;2023-08-24T09:14:59;17.05;;;13.40;;
59659;SDS011;45534;52.690;6.268;2023-08-24T09:17:25;12.68;;;10.13;;
59659;SDS011;45534;52.690;6.268;2023-08-24T09:19:52;15.85;;;11.75;;
59659;SDS011;45534;52.690;6.268;2023-08-24T09:22:22;9.05;;;6.28;;
59659;SDS011;45534;52.690;6.268;2023-08-24T09:24:48;8.85;;;7.07;;
59659;SDS011;45534;52.690;6.268;2023-08-24T09:27:20;11.93;;;6.18;;
59659;SDS011;45534;52.690;6.268;2023-08-24T09:29:52;14.68;;;12.00;;
59659;SDS011;45534;52.690;6.268;2023-08-24T09:32:24;19.02;;;8.48;;
59659;SDS011;45534;52.690;6.268;2023-08-24T09:34:52;6.60;;;5.72;;
59659;SDS011;45534;52.690;6.268;2023-08-24T09:37:19;9.75;;;7.10;;
59659;SDS011;45534;52.690;6.268;2023-08-24T09:39:45;16.13;;;11.30;;
59659;SDS011;45534;52.690;6.268;2023-08-24T09:42:11;16.73;;;12.27;;
59659;SDS011;45534;52.690;6.268;2023-08-24T09:44:42;14.00;;;11.57;;
59659;SDS011;45534;52.690;6.268;2023-08-24T09:47:10;18.00;;;11.60;;
59659;SDS011;45534;52.690;6.268;2023-08-24T09:49:39;15.25;;;7.40;;
59659;SDS011;45534;52.690;6.268;2023-08-24T09:52:08;10.95;;;6.63;;
59659;SDS011;45534;52.690;6.268;2023-08-24T09:54:37;13.50;;;6.88;;
59659;SDS011;45534;52.690;6.268;2023-08-24T09:57:07;8.57;;;7.30;;
59659;SDS011;45534;52.690;6.268;2023-08-24T09:59:34;16.50;;;7.05;;
59659;SDS011;45534;52.690;6.268;2023-08-24T10:02:04;11.13;;;7.65;;
59659;SDS011;45534;52.690;6.268;2023-08-24T10:04:40;13.20;;;7.68;;
59659;SDS011;45534;52.690;6.268;2023-08-24T10:07:08;14.93;;;12.52;;
59659;SDS011;45534;52.690;6.268;2023-08-24T10:09:49;13.40;;;10.23;;
59659;SDS011;45534;52.690;6.268;2023-08-24T10:12:39;16.35;;;12.18;;
59659;SDS011;45534;52.690;6.268;2023-08-24T10:15:11;10.20;;;6.97;;
59659;SDS011;45534;52.690;6.268;2023-08-24T10:17:38;15.77;;;7.07;;
59659;SDS011;45534;52.690;6.268;2023-08-24T10:20:05;15.13;;;10.70;;
59659;SDS011;45534;52.690;6.268;2023-08-24T10:22:34;17.30;;;11.30;;
59659;SDS011;45534;52.690;6.268;2023-08-24T10:25:01;13.88;;;11.30;;
59659;SDS011;45534;52.690;6.268;2023-08-24T10:27:28;14.20;;;7.93;;
59659;SDS011;45534;52.690;6.268;2023-08-24T10:29:55;15.77;;;11.90;;
59659;SDS011;45534;52.690;6.268;2023-08-24T10:32:23;12.43;;;7.82;;
59659;SDS011;45534;52.690;6.268;2023-08-24T10:34:50;11.88;;;7.40;;
59659;SDS011;45534;52.690;6.268;2023-08-24T10:37:16;8.57;;;6.40;;
59659;SDS011;45534;52.690;6.268;2023-08-24T10:39:45;8.15;;;7.18;;
59659;SDS011;45534;52.690;6.268;2023-08-24T10:42:14;14.10;;;12.18;;
59659;SDS011;45534;52.690;6.268;2023-08-24T10:44:43;13.73;;;8.02;;
59659;SDS011;45534;52.690;6.268;2023-08-24T10:47:15;12.18;;;8.00;;
59659;SDS011;45534;52.690;6.268;2023-08-24T10:49:44;13.00;;;9.27;;
59659;SDS011;45534;52.690;6.268;2023-08-24T10:54:49;29.60;;;14.43;;
59659;SDS011;45534;52.690;6.268;2023-08-24T10:57:19;22.85;;;14.32;;
59659;SDS011;45534;52.690;6.268;2023-08-24T11:02:49;17.42;;;12.98;;
59659;SDS011;45534;52.690;6.268;2023-08-24T11:07:55;14.50;;;9.05;;
59659;SDS011;45534;52.690;6.268;2023-08-24T11:10:21;11.60;;;8.85;;
59659;SDS011;45534;52.690;6.268;2023-08-24T11:15:33;14.23;;;7.88;;
59659;SDS011;45534;52.690;6.268;2023-08-24T11:18:11;14.93;;;9.80;;
59659;SDS011;45534;52.690;6.268;2023-08-24T11:20:44;10.70;;;8.30;;
59659;SDS011;45534;52.690;6.268;2023-08-24T11:23:10;11.07;;;7.95;;
59659;SDS011;45534;52.690;6.268;2023-08-24T11:25:37;21.80;;;14.23;;
59659;SDS011;45534;52.690;6.268;2023-08-24T11:28:03;14.25;;;12.75;;
59659;SDS011;45534;52.690;6.268;2023-08-24T11:30:33;15.98;;;14.27;;
59659;SDS011;45534;52.690;6.268;2023-08-24T11:32:59;20.65;;;15.18;;
59659;SDS011;45534;52.690;6.268;2023-08-24T11:35:26;15.90;;;14.30;;
59659;SDS011;45534;52.690;6.268;2023-08-24T11:37:55;21.58;;;13.50;;
59659;SDS011;45534;52.690;6.268;2023-08-24T11:40:21;17.35;;;13.80;;
59659;SDS011;45534;52.690;6.268;2023-08-24T11:42:54;16.20;;;13.65;;
59659;SDS011;45534;52.690;6.268;2023-08-24T11:45:23;13.13;;;10.40;;
59659;SDS011;45534;52.690;6.268;2023-08-24T11:47:54;15.68;;;13.95;;
59659;SDS011;45534;52.690;6.268;2023-08-24T11:50:19;17.55;;;12.63;;
59659;SDS011;45534;52.690;6.268;2023-08-24T11:52:45;10.27;;;7.60;;
59659;SDS011;45534;52.690;6.268;2023-08-24T11:55:11;17.85;;;10.63;;
59659;SDS011;45534;52.690;6.268;2023-08-24T11:57:37;13.63;;;10.02;;
59659;SDS011;45534;52.690;6.268;2023-08-24T12:00:03;10.23;;;7.65;;
59659;SDS011;45534;52.690;6.268;2023-08-24T12:02:30;9.57;;;7.18;;
59659;SDS011;45534;52.690;6.268;2023-08-24T12:04:57;17.27;;;13.38;;
59659;SDS011;45534;52.690;6.268;2023-08-24T12:07:23;17.70;;;13.70;;
59659;SDS011;45534;52.690;6.268;2023-08-24T12:09:51;15.48;;;13.88;;
59659;SDS011;45534;52.690;6.268;2023-08-24T12:12:19;14.52;;;12.63;;
59659;SDS011;45534;52.690;6.268;2023-08-24T12:14:46;15.63;;;14.02;;
59659;SDS011;45534;52.690;6.268;2023-08-24T12:17:13;15.82;;;13.13;;
59659;SDS011;45534;52.690;6.268;2023-08-24T12:19:43;16.45;;;14.18;;
59659;SDS011;45534;52.690;6.268;2023-08-24T12:22:21;14.85;;;13.27;;
59659;SDS011;45534;52.690;6.268;2023-08-24T12:24:47;15.15;;;13.05;;
59659;SDS011;45534;52.690;6.268;2023-08-24T12:27:19;13.63;;;12.27;;
59659;SDS011;45534;52.690;6.268;2023-08-24T12:29:49;25.05;;;13.88;;
59659;SDS011;45534;52.690;6.268;2023-08-24T12:32:15;15.63;;;13.10;;
59659;SDS011;45534;52.690;6.268;2023-08-24T12:34:44;15.60;;;13.95;;
59659;SDS011;45534;52.690;6.268;2023-08-24T12:37:11;15.98;;;13.15;;
59659;SDS011;45534;52.690;6.268;2023-08-24T12:39:39;21.92;;;14.38;;
59659;SDS011;45534;52.690;6.268;2023-08-24T12:42:05;17.05;;;13.50;;
59659;SDS011;45534;52.690;6.268;2023-08-24T12:44:31;16.75;;;15.05;;
59659;SDS011;45534;52.690;6.268;2023-08-24T12:46:58;16.15;;;14.45;;
59659;SDS011;45534;52.690;6.268;2023-08-24T12:49:24;17.42;;;15.20;;
59659;SDS011;45534;52.690;6.268;2023-08-24T12:51:49;16.88;;;14.98;;
59659;SDS011;45534;52.690;6.268;2023-08-24T12:54:15;15.30;;;13.57;;
59659;SDS011;45534;52.690;6.268;2023-08-24T12:56:41;17.67;;;15.73;;
59659;SDS011;45534;52.690;6.268;2023-08-24T12:59:07;17.27;;;14.98;;
59659;SDS011;45534;52.690;6.268;2023-08-24T13:01:33;18.17;;;16.27;;
59659;SDS011;45534;52.690;6.268;2023-08-24T13:03:59;17.65;;;15.48;;
59659;SDS011;45534;52.690;6.268;2023-08-24T13:06:25;16.15;;;14.43;;
59659;SDS011;45534;52.690;6.268;2023-08-24T13:08:52;16.88;;;14.80;;
59659;SDS011;45534;52.690;6.268;2023-08-24T13:11:18;14.40;;;9.77;;
59659;SDS011;45534;52.690;6.268;2023-08-24T13:13:44;17.67;;;14.90;;
59659;SDS011;45534;52.690;6.268;2023-08-24T13:16:12;17.70;;;15.85;;
59659;SDS011;45534;52.690;6.268;2023-08-24T13:18:38;23.20;;;16.10;;
59659;SDS011;45534;52.690;6.268;2023-08-24T13:21:04;18.25;;;15.40;;
59659;SDS011;45534;52.690;6.268;2023-08-24T13:23:30;17.70;;;15.07;;
59659;SDS011;45534;52.690;6.268;2023-08-24T13:25:58;16.90;;;15.13;;
59659;SDS011;45534;52.690;6.268;2023-08-24T13:28:24;14.18;;;12.82;;
59659;SDS011;45534;52.690;6.268;2023-08-24T13:30:50;18.38;;;16.27;;
59659;SDS011;45534;52.690;6.268;2023-08-24T13:33:15;12.27;;;9.35;;
59659;SDS011;45534;52.690;6.268;2023-08-24T13:35:42;21.35;;;16.08;;
59659;SDS011;45534;52.690;6.268;2023-08-24T13:38:08;20.48;;;15.10;;
59659;SDS011;45534;52.690;6.268;2023-08-24T13:40:33;18.05;;;16.15;;
59659;SDS011;45534;52.690;6.268;2023-08-24T13:42:59;21.88;;;17.13;;
59659;SDS011;45534;52.690;6.268;2023-08-24T13:45:25;19.95;;;17.83;;
59659;SDS011;45534;52.690;6.268;2023-08-24T13:47:50;24.90;;;18.65;;
59659;SDS011;45534;52.690;6.268;2023-08-24T13:50:16;17.13;;;12.70;;
59659;SDS011;45534;52.690;6.268;2023-08-24T13:52:42;12.48;;;8.10;;
59659;SDS011;45534;52.690;6.268;2023-08-24T13:55:07;12.18;;;8.68;;
59659;SDS011;45534;52.690;6.268;2023-08-24T13:57:33;10.93;;;5.65;;
59659;SDS011;45534;52.690;6.268;2023-08-24T13:59:59;7.22;;;6.30;;
59659;SDS011;45534;52.690;6.268;2023-08-24T14:02:26;12.60;;;9.18;;
59659;SDS011;45534;52.690;6.268;2023-08-24T14:04:51;6.25;;;5.55;;
59659;SDS011;45534;52.690;6.268;2023-08-24T14:07:17;20.80;;;18.80;;
59659;SDS011;45534;52.690;6.268;2023-08-24T14:09:43;14.27;;;10.60;;
59659;SDS011;45534;52.690;6.268;2023-08-24T14:12:08;8.38;;;6.93;;
59659;SDS011;45534;52.690;6.268;2023-08-24T14:14:34;11.02;;;7.30;;
59659;SDS011;45534;52.690;6.268;2023-08-24T14:17:00;21.05;;;18.90;;
59659;SDS011;45534;52.690;6.268;2023-08-24T14:19:25;12.70;;;10.75;;
59659;SDS011;45534;52.690;6.268;2023-08-24T14:21:52;13.88;;;10.88;;
59659;SDS011;45534;52.690;6.268;2023-08-24T14:24:17;12.82;;;10.15;;
59659;SDS011;45534;52.690;6.268;2023-08-24T14:26:43;5.45;;;4.50;;
59659;SDS011;45534;52.690;6.268;2023-08-24T14:29:13;19.73;;;17.80;;
59659;SDS011;45534;52.690;6.268;2023-08-24T14:31:39;20.52;;;18.58;;
59659;SDS011;45534;52.690;6.268;2023-08-24T14:34:05;22.23;;;19.70;;
59659;SDS011;45534;52.690;6.268;2023-08-24T14:36:31;7.13;;;6.30;;
59659;SDS011;45534;52.690;6.268;2023-08-24T14:38:57;10.13;;;6.40;;
59659;SDS011;45534;52.690;6.268;2023-08-24T14:41:23;10.75;;;7.30;;
59659;SDS011;45534;52.690;6.268;2023-08-24T14:43:49;14.15;;;10.50;;
59659;SDS011;45534;52.690;6.268;2023-08-24T14:46:14;9.55;;;6.43;;
59659;SDS011;45534;52.690;6.268;2023-08-24T14:48:40;11.43;;;10.30;;
59659;SDS011;45534;52.690;6.268;2023-08-24T14:51:06;6.10;;;5.53;;